createdAt,value
2023-04-21T00:01:28.420Z,7.99
2023-04-21T00:04:30.461Z,7.81
2023-04-21T00:07:32.421Z,7.82
2023-04-21T00:10:34.289Z,7.80
2023-04-21T00:13:37.364Z,7.83
2023-04-21T00:16:39.292Z,7.81
2023-04-21T00:19:41.137Z,7.61
2023-04-21T00:22:42.956Z,7.68
2023-04-21T00:25:44.774Z,7.57
2023-04-21T00:28:47.913Z,7.53
2023-04-21T00:31:49.782Z,7.57
2023-04-21T00:34:51.643Z,7.48
2023-04-21T00:37:53.485Z,7.47
2023-04-21T00:40:55.269Z,7.40
2023-04-21T00:44:06.114Z,7.42
2023-04-21T00:47:07.908Z,7.48
2023-04-21T00:50:11.293Z,7.35
2023-04-21T00:53:14.620Z,7.29
2023-04-21T00:56:17.269Z,7.26
2023-04-21T00:59:20.624Z,7.14
2023-04-21T01:02:23.082Z,6.90
2023-04-21T01:05:25.097Z,6.66
2023-04-21T01:08:27.835Z,6.66
2023-04-21T01:11:29.526Z,6.78
2023-04-21T01:14:32.738Z,6.81
2023-04-21T01:17:34.497Z,6.83
2023-04-21T01:20:36.520Z,6.78
2023-04-21T01:23:39.794Z,6.71
2023-04-21T01:26:41.580Z,6.53
2023-04-21T01:29:43.768Z,6.51
2023-04-21T01:32:45.576Z,6.44
2023-04-21T01:35:47.570Z,6.41
2023-04-21T01:38:52.324Z,6.58
2023-04-21T01:41:55.159Z,6.50
2023-04-21T01:44:57.555Z,6.60
2023-04-21T01:47:59.457Z,6.50
2023-04-21T01:51:01.226Z,6.51
2023-04-21T01:54:04.576Z,6.48
2023-04-21T01:57:06.419Z,6.37
2023-04-21T02:00:09.397Z,6.27
2023-04-21T02:03:11.335Z,6.14
2023-04-21T02:06:13.176Z,6.05
2023-04-21T02:09:16.368Z,6.08
2023-04-21T02:12:18.834Z,6.02
2023-04-21T02:15:20.577Z,6.07
2023-04-21T02:18:22.379Z,5.96
2023-04-21T02:21:24.849Z,5.92
2023-04-21T02:24:27.954Z,5.88
2023-04-21T02:27:29.678Z,5.84
2023-04-21T02:30:31.554Z,5.80
2023-04-21T02:33:33.294Z,5.73
2023-04-21T02:36:35.081Z,5.42
2023-04-21T02:39:38.255Z,4.92
2023-04-21T02:42:40.116Z,4.82
2023-04-21T02:45:41.866Z,4.78
2023-04-21T02:48:43.662Z,4.57
2023-04-21T02:51:45.421Z,4.49
2023-04-21T02:54:48.523Z,4.31
2023-04-21T02:57:50.637Z,4.49
2023-04-21T03:00:52.401Z,4.43
2023-04-21T03:03:54.293Z,4.40
2023-04-21T03:06:56.099Z,4.47
2023-04-21T03:09:59.237Z,4.60
2023-04-21T03:13:01.062Z,4.70
2023-04-21T03:16:02.927Z,4.87
2023-04-21T03:19:04.716Z,4.95
2023-04-21T03:22:06.742Z,5.04
2023-04-21T03:25:09.850Z,4.84
2023-04-21T03:28:11.582Z,4.84
2023-04-21T03:31:13.430Z,4.91
2023-04-21T03:34:15.359Z,5.04
2023-04-21T03:37:17.206Z,5.10
2023-04-21T03:40:20.484Z,5.09
2023-04-21T03:43:22.342Z,5.06
2023-04-21T03:46:24.110Z,4.82
2023-04-21T03:49:26.099Z,4.76
2023-04-21T03:52:27.911Z,4.66
2023-04-21T03:55:30.979Z,4.73
2023-04-21T03:58:32.742Z,4.71
2023-04-21T04:01:34.728Z,4.51
2023-04-21T04:04:36.598Z,4.50
2023-04-21T04:07:38.442Z,4.33
2023-04-21T04:10:41.646Z,4.26
2023-04-21T04:13:43.414Z,4.43
2023-04-21T04:16:45.174Z,4.48
2023-04-21T04:19:46.981Z,4.43
2023-04-21T04:22:48.760Z,4.52
2023-04-21T04:25:51.895Z,4.51
2023-04-21T04:28:53.685Z,4.57
2023-04-21T04:31:55.606Z,4.43
2023-04-21T04:34:57.372Z,4.49
2023-04-21T04:37:59.120Z,4.59
2023-04-21T04:41:02.234Z,4.58
2023-04-21T04:44:04.157Z,4.51
2023-04-21T04:47:06.144Z,4.50
2023-04-21T04:50:08.626Z,4.52
2023-04-21T04:53:10.502Z,4.61
2023-04-21T04:56:13.580Z,4.77
2023-04-21T04:59:15.287Z,4.83
2023-04-21T05:02:17.107Z,4.89
2023-04-21T05:05:18.916Z,4.96
2023-04-21T05:08:20.680Z,4.94
2023-04-21T05:11:23.888Z,4.89
2023-04-21T05:14:26.688Z,4.99
2023-04-21T05:17:28.516Z,5.08
2023-04-21T05:20:30.371Z,5.20
2023-04-21T05:23:32.174Z,5.28
2023-04-21T05:26:35.366Z,5.36
2023-04-21T05:29:37.137Z,5.42
2023-04-21T05:32:39.026Z,5.38
2023-04-21T05:35:40.855Z,5.47
2023-04-21T05:38:43.104Z,5.48
2023-04-21T05:41:46.169Z,5.55
2023-04-21T05:44:47.972Z,5.68
2023-04-21T05:47:49.707Z,5.73
2023-04-21T05:50:51.484Z,5.78
2023-04-21T05:53:53.281Z,5.85
2023-04-21T05:56:56.419Z,5.96
2023-04-21T05:59:58.616Z,6.04
2023-04-21T06:03:00.430Z,6.13
2023-04-21T06:06:04.079Z,6.17
2023-04-21T06:09:05.860Z,6.24
2023-04-21T06:12:09.194Z,6.32
2023-04-21T06:15:11.127Z,6.34
2023-04-21T06:18:12.919Z,6.36
2023-04-21T06:21:14.737Z,6.35
2023-04-21T06:24:16.778Z,6.41
2023-04-21T06:27:19.995Z,6.44
2023-04-21T06:30:21.927Z,6.49
2023-04-21T06:33:23.698Z,6.49
2023-04-21T06:36:25.408Z,6.51
2023-04-21T06:39:28.782Z,6.58
2023-04-21T06:42:31.898Z,6.62
2023-04-21T06:45:33.624Z,6.70
2023-04-21T06:48:35.321Z,6.70
2023-04-21T06:51:37.161Z,6.82
2023-04-21T06:54:38.960Z,6.85
2023-04-21T06:57:42.221Z,6.91
2023-04-21T07:00:43.947Z,6.97
2023-04-21T07:03:46.090Z,7.05
2023-04-21T07:06:48.003Z,7.13
2023-04-21T07:09:49.720Z,7.24
2023-04-21T07:12:52.944Z,7.47
2023-04-21T07:15:54.872Z,7.57
2023-04-21T07:18:56.963Z,7.72
2023-04-21T07:21:58.763Z,7.90
2023-04-21T07:25:00.564Z,7.97
2023-04-21T07:28:03.906Z,8.04
2023-04-21T07:31:05.754Z,8.08
2023-04-21T07:34:07.492Z,8.19
2023-04-21T07:37:09.299Z,8.32
2023-04-21T07:40:11.706Z,8.46
2023-04-21T07:43:14.997Z,8.63
2023-04-21T07:46:16.831Z,8.65
2023-04-21T07:49:18.776Z,8.72
2023-04-21T07:52:20.663Z,8.73
2023-04-21T07:55:22.439Z,8.75
2023-04-21T07:58:25.576Z,8.78
2023-04-21T08:01:27.420Z,8.79
2023-04-21T08:04:29.406Z,8.87
2023-04-21T08:07:31.233Z,8.97
2023-04-21T08:10:33.112Z,9.07
2023-04-21T08:13:36.291Z,9.20
2023-04-21T08:16:38.479Z,9.35
2023-04-21T08:19:40.600Z,9.38
2023-04-21T08:22:42.734Z,9.40
2023-04-21T08:25:44.611Z,9.39
2023-04-21T08:28:47.761Z,9.43
2023-04-21T08:31:49.663Z,9.49
2023-04-21T08:34:52.471Z,9.57
2023-04-21T08:37:54.266Z,9.72
2023-04-21T08:40:58.761Z,9.90
2023-04-21T08:44:02.460Z,10.02
2023-04-21T08:47:05.168Z,10.06
2023-04-21T08:50:12.045Z,10.19
2023-04-21T08:53:13.951Z,10.26
2023-04-21T08:56:15.673Z,10.27
2023-04-21T08:59:18.874Z,10.42
2023-04-21T09:02:22.084Z,10.50
2023-04-21T09:05:24.991Z,10.72
2023-04-21T09:08:28.031Z,10.81
2023-04-21T09:11:33.350Z,10.86
2023-04-21T09:14:36.474Z,10.99
2023-04-21T09:17:38.246Z,11.07
2023-04-21T09:20:40.593Z,11.11
2023-04-21T09:23:43.584Z,11.21
2023-04-21T09:26:45.341Z,11.33
2023-04-21T09:29:48.690Z,11.43
2023-04-21T09:32:50.533Z,11.63
2023-04-21T09:35:52.830Z,11.73
2023-04-21T09:39:24.264Z,11.85
2023-04-21T09:42:20.407Z,12.00
2023-04-21T09:45:39.194Z,12.10
2023-04-21T09:48:44.734Z,12.18
2023-04-21T09:54:57.212Z,12.43
2023-04-21T09:58:00.778Z,12.43
2023-04-21T10:01:04.653Z,12.52
2023-04-21T10:04:07.080Z,12.56
2023-04-21T10:07:10.212Z,12.70
2023-04-21T10:10:19.060Z,12.84
2023-04-21T10:13:22.430Z,13.06
2023-04-21T10:16:26.964Z,13.11
2023-04-21T10:19:28.780Z,13.14
2023-04-21T10:22:32.097Z,13.32
2023-04-21T10:25:33.903Z,13.28
2023-04-21T10:28:43.446Z,13.43
2023-04-21T10:31:52.454Z,13.65
2023-04-21T10:34:56.994Z,13.65
2023-04-21T10:37:58.992Z,13.74
2023-04-21T10:41:25.825Z,13.92
2023-04-21T10:44:29.042Z,14.00
2023-04-21T10:47:37.737Z,14.10
2023-04-21T10:50:39.783Z,14.04
2023-04-21T10:53:43.776Z,14.13
2023-04-21T10:56:45.554Z,14.25
2023-04-21T10:59:48.307Z,14.33
2023-04-21T11:02:59.699Z,14.25
2023-04-21T11:06:14.765Z,14.32
2023-04-21T11:09:16.548Z,14.52
2023-04-21T11:12:18.924Z,14.43
2023-04-21T11:15:20.729Z,14.55
2023-04-21T11:18:32.689Z,14.65
2023-04-21T11:21:34.462Z,14.73
2023-04-21T11:24:36.191Z,14.78
2023-04-21T11:27:37.960Z,14.80
2023-04-21T11:30:39.767Z,14.87
2023-04-21T11:33:43.030Z,14.92
2023-04-21T11:36:46.154Z,15.06
2023-04-21T11:39:47.902Z,15.14
2023-04-21T11:42:50.406Z,15.20
2023-04-21T11:45:52.391Z,15.30
2023-04-21T11:49:03.401Z,15.30
2023-04-21T11:52:05.199Z,15.38
2023-04-21T11:55:12.089Z,15.36
2023-04-21T11:58:14.132Z,15.29
2023-04-21T12:01:16.364Z,15.37
2023-04-21T12:04:20.988Z,15.34
2023-04-21T12:07:23.200Z,15.38
2023-04-21T12:10:24.908Z,15.32
2023-04-21T12:13:27.859Z,15.34
2023-04-21T12:16:29.820Z,15.35
2023-04-21T12:19:41.031Z,15.27
2023-04-21T12:22:42.907Z,15.26
2023-04-21T12:25:45.877Z,15.20
2023-04-21T12:28:47.606Z,15.27
2023-04-21T12:31:49.441Z,15.23
2023-04-21T12:34:52.827Z,15.51
2023-04-21T12:37:54.525Z,15.66
2023-04-21T12:40:56.314Z,15.80
2023-04-21T12:43:57.975Z,15.86
2023-04-21T12:46:59.790Z,15.86
2023-04-21T12:50:03.563Z,16.26
2023-04-21T12:53:05.323Z,16.40
2023-04-21T12:56:07.266Z,16.39
2023-04-21T12:59:09.598Z,16.41
2023-04-21T13:02:12.190Z,16.50
2023-04-21T13:05:15.300Z,16.48
2023-04-21T13:08:17.023Z,16.49
2023-04-21T13:11:18.801Z,16.48
2023-04-21T13:14:20.603Z,16.59
2023-04-21T13:17:22.705Z,16.56
2023-04-21T13:20:25.907Z,16.57
2023-04-21T13:23:27.655Z,16.88
2023-04-21T13:26:30.928Z,16.91
2023-04-21T13:29:32.893Z,17.01
2023-04-21T13:32:34.909Z,17.01
2023-04-21T13:35:38.411Z,16.82
2023-04-21T13:38:40.295Z,16.79
2023-04-21T13:41:41.997Z,16.83
2023-04-21T13:44:43.776Z,16.89
2023-04-21T13:47:45.632Z,16.80
2023-04-21T13:50:48.790Z,16.94
2023-04-21T13:53:50.540Z,17.22
2023-04-21T13:56:52.298Z,17.13
2023-04-21T13:59:54.158Z,17.26
2023-04-21T14:02:56.184Z,17.25
2023-04-21T14:05:59.481Z,17.27
2023-04-21T14:09:01.286Z,17.48
2023-04-21T14:12:03.363Z,17.51
2023-04-21T14:15:06.240Z,17.55
2023-04-21T14:18:08.192Z,17.64
2023-04-21T14:21:11.450Z,17.74
2023-04-21T14:24:13.248Z,17.89
2023-04-21T14:27:15.126Z,17.86
2023-04-21T14:30:16.981Z,18.03
2023-04-21T14:33:18.826Z,17.92
2023-04-21T14:36:22.104Z,18.10
2023-04-21T14:39:23.997Z,17.94
2023-04-21T14:42:25.710Z,17.81
2023-04-21T14:45:27.659Z,18.11
2023-04-21T14:48:29.552Z,18.19
2023-04-21T14:51:32.803Z,18.15
2023-04-21T14:54:34.615Z,18.11
2023-04-21T14:57:36.370Z,18.29
2023-04-21T15:00:38.245Z,18.37
2023-04-21T15:03:40.244Z,18.33
2023-04-21T15:06:43.477Z,18.43
2023-04-21T15:09:45.232Z,18.30
2023-04-21T15:12:47.078Z,18.30
2023-04-21T15:15:48.935Z,18.47
2023-04-21T15:18:50.702Z,18.38
2023-04-21T15:21:53.935Z,18.42
2023-04-21T15:24:55.776Z,18.69
2023-04-21T15:27:57.502Z,18.77
2023-04-21T15:30:59.298Z,18.76
2023-04-21T15:34:01.169Z,18.92
2023-04-21T15:37:04.433Z,18.82
2023-04-21T15:40:08.011Z,18.72
2023-04-21T15:43:09.790Z,18.74
2023-04-21T15:46:11.546Z,18.61
2023-04-21T15:49:13.457Z,18.50
2023-04-21T15:52:16.688Z,18.60
2023-04-21T15:55:18.579Z,18.50
2023-04-21T15:58:20.420Z,18.50
2023-04-21T16:01:22.502Z,18.45
2023-04-21T16:04:24.679Z,18.41
2023-04-21T16:07:28.150Z,18.25
2023-04-21T16:10:29.920Z,18.26
2023-04-21T16:13:31.909Z,18.27
2023-04-21T16:16:33.714Z,18.29
2023-04-21T16:19:35.534Z,18.60
2023-04-21T16:22:38.680Z,18.67
2023-04-21T16:25:40.637Z,18.91
2023-04-21T16:28:42.492Z,18.96
2023-04-21T16:31:44.325Z,19.04
2023-04-21T16:34:46.202Z,19.24
2023-04-21T16:37:49.483Z,19.42
2023-04-21T16:40:51.311Z,19.28
2023-04-21T16:43:53.086Z,18.89
2023-04-21T16:46:55.216Z,18.59
2023-04-21T16:49:57.155Z,18.61
2023-04-21T16:53:00.732Z,18.44
2023-04-21T16:56:02.601Z,18.20
2023-04-21T16:59:04.370Z,17.95
2023-04-21T17:02:06.402Z,17.98
2023-04-21T17:05:09.089Z,18.22
2023-04-21T17:08:12.500Z,18.16
2023-04-21T17:11:14.454Z,18.38
2023-04-21T17:14:16.216Z,18.49
2023-04-21T17:17:18.031Z,18.33
2023-04-21T17:20:19.809Z,18.07
2023-04-21T17:23:22.848Z,18.08
2023-04-21T17:26:24.800Z,18.15
2023-04-21T17:29:26.528Z,18.11
2023-04-21T17:32:29.158Z,17.95
2023-04-21T17:35:32.556Z,17.14
2023-04-21T17:38:35.717Z,16.93
2023-04-21T17:41:37.397Z,16.66
2023-04-21T17:44:39.466Z,16.54
2023-04-21T17:47:41.949Z,16.44
2023-04-21T17:50:43.711Z,16.25
2023-04-21T17:53:47.085Z,16.08
2023-04-21T17:56:49.116Z,16.13
2023-04-21T17:59:51.075Z,16.01
2023-04-21T18:02:52.971Z,15.77
2023-04-21T18:05:55.508Z,15.74
2023-04-21T18:08:58.691Z,15.63
2023-04-21T18:12:00.459Z,15.48
2023-04-21T18:15:02.750Z,15.48
2023-04-21T18:18:05.011Z,15.28
2023-04-21T18:21:06.886Z,14.95
2023-04-21T18:24:10.130Z,15.07
2023-04-21T18:27:12.408Z,15.14
2023-04-21T18:30:14.541Z,14.69
2023-04-21T18:33:16.952Z,14.84
2023-04-21T18:36:18.786Z,14.63
2023-04-21T18:39:21.919Z,14.50
2023-04-21T18:42:24.119Z,14.52
2023-04-21T18:45:26.222Z,14.55
2023-04-21T18:48:27.986Z,14.22
2023-04-21T18:51:30.169Z,14.10
2023-04-21T18:54:34.905Z,14.12
2023-04-21T18:57:37.282Z,14.00
2023-04-21T19:00:39.848Z,13.66
2023-04-21T19:03:42.804Z,13.71
2023-04-21T19:06:44.894Z,13.51
2023-04-21T19:09:49.541Z,13.60
2023-04-21T19:12:51.840Z,13.69
2023-04-21T19:15:54.286Z,13.73
2023-04-21T19:18:56.328Z,13.79
2023-04-21T19:21:58.651Z,13.74
2023-04-21T19:25:02.306Z,13.71
2023-04-21T19:28:04.649Z,13.45
2023-04-21T19:31:07.484Z,13.37
2023-04-21T19:34:09.514Z,13.24
2023-04-21T19:37:11.522Z,13.32
2023-04-21T19:40:17.711Z,13.28
2023-04-21T19:43:19.598Z,13.18
2023-04-21T19:46:22.439Z,13.19
2023-04-21T19:49:24.902Z,12.85
2023-04-21T19:52:27.287Z,12.83
2023-04-21T19:55:32.649Z,12.97
2023-04-21T19:58:40.704Z,12.93
2023-04-21T20:01:43.665Z,12.94
2023-04-21T20:04:45.827Z,12.87
2023-04-21T20:07:47.629Z,12.77
2023-04-21T20:10:51.132Z,12.74
2023-04-21T20:13:52.881Z,12.74
2023-04-21T20:16:55.427Z,12.74
2023-04-21T20:19:57.348Z,12.82
2023-04-21T20:22:59.491Z,12.63
2023-04-21T20:26:02.648Z,12.78
2023-04-21T20:29:04.894Z,12.82
2023-04-21T20:32:06.771Z,12.70
2023-04-21T20:35:09.375Z,12.65
2023-04-21T20:38:11.363Z,12.54
2023-04-21T20:41:14.492Z,12.47
2023-04-21T20:44:16.350Z,12.50
2023-04-21T20:47:18.257Z,12.44
2023-04-21T20:50:20.895Z,12.28
2023-04-21T20:53:23.521Z,12.32
2023-04-21T20:56:26.919Z,12.29
2023-04-21T20:59:28.651Z,12.32
2023-04-21T21:02:30.605Z,12.14
2023-04-21T21:05:32.496Z,12.24
2023-04-21T21:08:34.405Z,12.11
2023-04-21T21:11:37.516Z,12.24
2023-04-21T21:14:39.399Z,12.29
2023-04-21T21:17:41.157Z,12.31
2023-04-21T21:20:42.923Z,12.22
2023-04-21T21:23:44.691Z,12.34
2023-04-21T21:26:47.879Z,12.18
2023-04-21T21:29:49.796Z,12.02
2023-04-21T21:32:51.626Z,12.09
2023-04-21T21:35:53.650Z,12.10
2023-04-21T21:38:55.487Z,12.05
2023-04-21T21:41:58.563Z,11.99
2023-04-21T21:45:00.341Z,12.05
2023-04-21T21:48:02.206Z,12.03
2023-04-21T21:51:04.146Z,11.98
2023-04-21T21:54:05.937Z,11.92
2023-04-21T21:57:09.110Z,11.81
2023-04-21T22:00:11.641Z,11.83
2023-04-21T22:03:13.485Z,11.78
2023-04-21T22:06:17.179Z,11.81
2023-04-21T22:09:19.235Z,11.75
2023-04-21T22:12:22.399Z,11.56
2023-04-21T22:15:24.126Z,11.49
2023-04-21T22:18:25.953Z,11.50
2023-04-21T22:21:27.663Z,11.48
2023-04-21T22:24:29.442Z,11.55
2023-04-21T22:27:32.495Z,11.43
2023-04-21T22:30:34.375Z,11.49
2023-04-21T22:33:36.277Z,11.33
2023-04-21T22:36:38.061Z,11.35
2023-04-21T22:39:39.952Z,11.21
2023-04-21T22:42:43.525Z,11.10
2023-04-21T22:45:45.332Z,11.07
2023-04-21T22:48:47.050Z,11.00
2023-04-21T22:51:48.760Z,10.94
2023-04-21T22:54:50.513Z,10.91
2023-04-21T22:57:53.596Z,10.98
2023-04-21T23:00:55.352Z,10.83
2023-04-21T23:03:57.191Z,10.68
2023-04-21T23:06:59.185Z,10.65
2023-04-21T23:10:00.953Z,10.69
2023-04-21T23:13:04.044Z,10.64
2023-04-21T23:16:06.059Z,10.49
2023-04-21T23:19:07.809Z,10.32
2023-04-21T23:22:09.753Z,10.28
2023-04-21T23:25:11.571Z,10.25
2023-04-21T23:28:14.646Z,9.98
2023-04-21T23:31:16.504Z,9.96
2023-04-21T23:34:18.503Z,9.83
2023-04-21T23:37:20.226Z,9.47
2023-04-21T23:40:22.058Z,9.51
2023-04-21T23:43:25.300Z,9.54
2023-04-21T23:46:27.054Z,9.53
2023-04-21T23:49:28.843Z,9.54
2023-04-21T23:52:30.585Z,9.66
2023-04-21T23:55:32.334Z,9.46
2023-04-21T23:58:35.509Z,9.43
